createdAt,value
2022-12-04T00:00:34.349Z,53.13
2022-12-04T00:03:01.524Z,53.75
2022-12-04T00:05:28.557Z,53.65
2022-12-04T00:07:55.617Z,51.38
2022-12-04T00:10:22.975Z,49.97
2022-12-04T00:12:50.728Z,52.53
2022-12-04T00:15:26.419Z,52.78
2022-12-04T00:17:54.081Z,52.33
2022-12-04T00:20:21.294Z,53.85
2022-12-04T00:22:48.570Z,51.70
2022-12-04T00:25:15.839Z,52.90
2022-12-04T00:27:43.032Z,53.08
2022-12-04T00:30:10.636Z,53.60
2022-12-04T00:32:37.992Z,52.28
2022-12-04T00:35:05.417Z,51.58
2022-12-04T00:37:33.476Z,53.45
2022-12-04T00:40:00.548Z,53.95
2022-12-04T00:42:27.813Z,52.78
2022-12-04T00:44:54.824Z,54.53
2022-12-04T00:47:21.897Z,53.80
2022-12-04T00:49:48.965Z,57.80
2022-12-04T00:52:16.025Z,57.58
2022-12-04T00:54:43.057Z,57.45
2022-12-04T00:57:10.213Z,58.85
2022-12-04T00:59:38.299Z,57.28
2022-12-04T01:02:05.381Z,58.67
2022-12-04T01:04:32.505Z,58.13
2022-12-04T01:07:04.591Z,59.47
2022-12-04T01:09:33.177Z,56.28
2022-12-04T01:12:00.219Z,57.25
2022-12-04T01:14:27.330Z,56.72
2022-12-04T01:16:54.730Z,58.08
2022-12-04T01:19:21.856Z,58.13
2022-12-04T01:21:49.003Z,56.70
2022-12-04T01:24:16.059Z,58.08
2022-12-04T01:26:43.047Z,59.00
2022-12-04T01:29:10.078Z,55.95
2022-12-04T01:31:37.212Z,59.80
2022-12-04T01:34:04.708Z,58.25
2022-12-04T01:36:31.965Z,58.05
2022-12-04T01:38:58.895Z,60.05
2022-12-04T01:41:29.681Z,59.80
2022-12-04T01:44:15.326Z,59.33
2022-12-04T01:46:44.201Z,57.15
2022-12-04T01:49:18.685Z,57.35
2022-12-04T01:51:52.479Z,56.83
2022-12-04T01:54:28.722Z,58.22
2022-12-04T01:57:15.679Z,56.08
2022-12-04T02:00:02.442Z,53.40
2022-12-04T02:02:36.266Z,58.42
2022-12-04T02:05:05.491Z,55.90
2022-12-04T02:07:33.203Z,57.88
2022-12-04T02:10:06.364Z,56.13
2022-12-04T02:12:47.950Z,55.88
2022-12-04T02:15:14.991Z,51.15
2022-12-04T02:18:02.172Z,51.30
2022-12-04T02:20:50.664Z,55.30
2022-12-04T02:23:39.262Z,54.10
2022-12-04T02:26:32.671Z,55.72
2022-12-04T02:29:10.274Z,54.63
2022-12-04T02:32:06.155Z,56.83
2022-12-04T02:34:40.581Z,58.95
2022-12-04T02:37:18.502Z,57.55
2022-12-04T02:40:07.469Z,52.67
2022-12-04T02:42:41.444Z,53.95
2022-12-04T02:45:10.691Z,53.67
2022-12-04T02:47:38.584Z,55.40
2022-12-04T02:50:08.785Z,53.08
2022-12-04T02:52:40.288Z,54.58
2022-12-04T02:55:14.987Z,51.75
2022-12-04T02:57:47.277Z,54.63
2022-12-04T03:00:15.238Z,56.00
2022-12-04T03:02:51.935Z,56.40
2022-12-04T03:05:42.969Z,53.47
2022-12-04T03:08:17.928Z,52.78
2022-12-04T03:10:49.446Z,54.50
2022-12-04T03:13:21.125Z,53.45
2022-12-04T03:18:29.216Z,52.70
2022-12-04T03:21:01.486Z,53.58
2022-12-04T03:24:07.486Z,52.60
2022-12-04T03:26:48.284Z,53.78
2022-12-04T03:29:26.544Z,54.53
2022-12-04T03:31:59.610Z,53.97
2022-12-04T03:34:47.113Z,53.85
2022-12-04T03:37:17.741Z,54.45
2022-12-04T03:40:22.019Z,54.45
2022-12-04T03:42:53.261Z,55.53
2022-12-04T03:45:28.019Z,44.22
2022-12-04T03:48:04.578Z,53.70
2022-12-04T03:50:36.405Z,58.22
2022-12-04T03:53:24.946Z,56.17
2022-12-04T03:55:53.856Z,54.60
2022-12-04T03:58:25.352Z,57.50
2022-12-04T04:00:54.032Z,58.22
2022-12-04T04:03:34.057Z,57.28
2022-12-04T04:06:04.914Z,57.75
2022-12-04T04:08:35.411Z,58.85
2022-12-04T04:11:14.394Z,60.92
2022-12-04T04:14:06.799Z,58.78
2022-12-04T04:16:54.599Z,58.20
2022-12-04T04:19:40.654Z,58.25
2022-12-04T04:22:29.011Z,59.92
2022-12-04T04:25:02.972Z,58.10
2022-12-04T04:27:30.293Z,58.38
2022-12-04T04:29:58.135Z,61.30
2022-12-04T04:32:48.044Z,61.42
2022-12-04T04:35:42.242Z,59.50
2022-12-04T04:38:54.248Z,58.35
2022-12-04T04:41:32.421Z,57.78
2022-12-04T04:44:08.852Z,59.00
2022-12-04T04:46:40.643Z,59.10
2022-12-04T04:51:37.288Z,56.17
2022-12-04T04:54:10.701Z,57.92
2022-12-04T04:56:45.005Z,58.92
2022-12-04T04:59:12.932Z,59.03
2022-12-04T05:01:40.900Z,56.63
2022-12-04T05:04:08.359Z,59.08
2022-12-04T05:06:35.654Z,56.15
2022-12-04T05:09:03.401Z,57.30
2022-12-04T05:11:30.937Z,55.50
2022-12-04T05:13:58.065Z,53.00
2022-12-04T05:16:25.306Z,52.35
2022-12-04T05:19:10.881Z,53.78
2022-12-04T05:21:38.008Z,50.47
2022-12-04T05:24:05.224Z,55.42
2022-12-04T05:26:32.216Z,56.15
2022-12-04T05:28:59.266Z,54.28
2022-12-04T05:31:26.353Z,51.97
2022-12-04T05:33:53.558Z,52.60
2022-12-04T05:36:20.658Z,52.55
2022-12-04T05:38:47.817Z,51.13
2022-12-04T05:41:14.824Z,51.92
2022-12-04T05:43:42.081Z,56.38
2022-12-04T05:46:10.896Z,52.50
2022-12-04T05:48:38.272Z,55.03
2022-12-04T05:51:09.568Z,55.17
2022-12-04T05:53:37.099Z,53.00
2022-12-04T05:56:05.807Z,56.55
2022-12-04T05:58:35.882Z,52.97
2022-12-04T06:01:15.593Z,55.97
2022-12-04T06:03:42.814Z,56.53
2022-12-04T06:06:21.827Z,52.67
2022-12-04T06:08:51.112Z,52.50
2022-12-04T06:11:21.597Z,56.90
2022-12-04T06:13:49.371Z,56.00
2022-12-04T06:16:25.143Z,51.75
2022-12-04T06:18:54.825Z,52.13
2022-12-04T06:21:23.187Z,54.35
2022-12-04T06:23:51.499Z,48.13
2022-12-04T06:26:19.745Z,52.92
2022-12-04T06:28:46.904Z,51.53
2022-12-04T06:31:16.026Z,50.35
2022-12-04T06:33:43.435Z,51.70
2022-12-04T06:36:23.424Z,51.58
2022-12-04T06:38:51.651Z,51.80
2022-12-04T06:41:20.577Z,52.97
2022-12-04T06:43:48.729Z,47.78
2022-12-04T06:46:26.601Z,43.05
2022-12-04T06:48:56.020Z,50.88
2022-12-04T06:51:31.655Z,46.97
2022-12-04T06:53:59.371Z,45.80
2022-12-04T06:56:29.263Z,47.60
2022-12-04T06:58:59.246Z,47.25
2022-12-04T07:01:28.860Z,44.25
2022-12-04T07:03:57.166Z,52.28
2022-12-04T07:06:29.487Z,46.58
2022-12-04T07:09:01.720Z,53.28
2022-12-04T07:11:30.045Z,47.67
2022-12-04T07:13:57.136Z,52.15
2022-12-04T07:16:25.324Z,52.13
2022-12-04T07:18:54.093Z,53.75
2022-12-04T07:21:23.994Z,51.08
2022-12-04T07:23:53.011Z,48.72
2022-12-04T07:26:21.169Z,53.33
2022-12-04T07:28:48.698Z,54.33
2022-12-04T07:31:19.611Z,53.60
2022-12-04T07:33:47.591Z,56.73
2022-12-04T07:36:17.607Z,58.10
2022-12-04T07:38:44.898Z,58.42
2022-12-04T07:41:13.410Z,56.70
2022-12-04T07:43:41.239Z,52.90
2022-12-04T07:46:14.738Z,56.17
2022-12-04T07:48:41.908Z,56.42
2022-12-04T07:51:14.841Z,54.78
2022-12-04T07:53:42.417Z,56.88
2022-12-04T07:56:11.031Z,54.35
2022-12-04T07:58:38.376Z,54.05
2022-12-04T08:01:07.517Z,57.10
2022-12-04T08:03:34.758Z,58.03
2022-12-04T08:06:06.139Z,60.47
2022-12-04T08:08:34.018Z,58.65
2022-12-04T08:11:02.140Z,56.45
2022-12-04T08:13:29.274Z,53.47
2022-12-04T08:15:56.338Z,59.75
2022-12-04T08:18:23.495Z,62.08
2022-12-04T08:20:50.453Z,55.08
2022-12-04T08:23:17.467Z,58.75
2022-12-04T08:25:44.605Z,57.10
2022-12-04T08:28:11.969Z,52.22
2022-12-04T08:30:39.015Z,60.15
2022-12-04T08:33:06.380Z,60.60
2022-12-04T08:35:34.494Z,61.95
2022-12-04T08:38:01.722Z,62.20
2022-12-04T08:40:28.932Z,60.45
2022-12-04T08:42:56.143Z,61.60
2022-12-04T08:45:23.541Z,58.63
2022-12-04T08:47:52.556Z,59.53
2022-12-04T08:50:19.959Z,56.08
2022-12-04T08:52:46.965Z,66.38
2022-12-04T08:55:14.271Z,63.55
2022-12-04T08:57:41.358Z,63.28
2022-12-04T09:00:09.084Z,63.25
2022-12-04T09:02:36.144Z,62.47
2022-12-04T09:05:03.464Z,60.13
2022-12-04T09:07:30.762Z,58.83
2022-12-04T09:09:58.179Z,59.45
2022-12-04T09:12:25.556Z,59.88
2022-12-04T09:14:52.628Z,55.80
2022-12-04T09:17:19.643Z,54.75
2022-12-04T09:19:46.806Z,50.97
2022-12-04T09:22:13.968Z,51.47
2022-12-04T09:24:41.927Z,49.53
2022-12-04T09:27:14.549Z,52.65
2022-12-04T09:29:42.285Z,44.08
2022-12-04T09:32:09.347Z,52.33
2022-12-04T09:34:36.600Z,52.35
2022-12-04T09:37:03.625Z,53.42
2022-12-04T09:39:30.937Z,51.28
2022-12-04T09:42:42.460Z,53.13
2022-12-04T09:45:19.378Z,51.20
2022-12-04T09:47:58.724Z,50.92
2022-12-04T09:50:33.165Z,52.75
2022-12-04T09:53:23.338Z,50.20
2022-12-04T09:56:05.374Z,53.22
2022-12-04T10:01:03.757Z,49.25
2022-12-04T10:03:31.664Z,51.15
2022-12-04T10:06:10.710Z,47.55
2022-12-04T10:08:41.541Z,47.53
2022-12-04T10:11:14.487Z,46.88
2022-12-04T10:13:51.870Z,45.90
2022-12-04T10:16:33.138Z,47.75
2022-12-04T10:19:06.292Z,48.30
2022-12-04T10:22:08.674Z,46.22
2022-12-04T10:24:53.587Z,45.47
2022-12-04T10:27:40.237Z,46.80
2022-12-04T10:30:16.671Z,45.08
2022-12-04T10:32:47.642Z,47.08
2022-12-04T10:35:24.291Z,46.37
2022-12-04T10:37:56.878Z,44.10
2022-12-04T10:40:35.565Z,43.25
2022-12-04T10:43:31.519Z,45.10
2022-12-04T10:45:58.900Z,44.47
2022-12-04T10:48:37.693Z,41.67
2022-12-04T10:51:04.998Z,46.17
2022-12-04T10:53:35.223Z,46.10
2022-12-04T10:56:18.265Z,46.72
2022-12-04T10:59:04.830Z,47.65
2022-12-04T11:01:33.883Z,46.53
2022-12-04T11:04:10.348Z,48.35
2022-12-04T11:06:38.430Z,45.38
2022-12-04T11:09:05.534Z,48.00
2022-12-04T11:11:34.851Z,47.65
2022-12-04T11:14:04.427Z,46.53
2022-12-04T11:16:38.795Z,48.53
2022-12-04T11:19:26.756Z,46.38
2022-12-04T11:21:56.964Z,45.03
2022-12-04T11:24:29.523Z,46.95
2022-12-04T11:26:57.298Z,43.67
2022-12-04T11:29:38.027Z,49.35
2022-12-04T11:32:42.284Z,45.00
2022-12-04T11:35:23.211Z,46.17
2022-12-04T11:37:56.944Z,45.08
2022-12-04T11:40:25.413Z,44.30
2022-12-04T11:43:04.435Z,43.45
2022-12-04T11:45:39.881Z,41.75
2022-12-04T11:48:28.010Z,43.78
2022-12-04T11:51:33.042Z,44.40
2022-12-04T11:54:04.927Z,41.35
2022-12-04T11:56:40.726Z,44.17
2022-12-04T11:59:36.640Z,44.20
2022-12-04T12:02:31.989Z,43.38
2022-12-04T12:05:29.654Z,42.22
2022-12-04T12:08:03.024Z,44.75
2022-12-04T12:10:44.599Z,43.92
2022-12-04T12:13:49.560Z,43.42
2022-12-04T12:16:38.353Z,40.97
2022-12-04T12:19:27.051Z,41.30
2022-12-04T12:22:09.467Z,39.78
2022-12-04T12:25:03.265Z,44.17
2022-12-04T12:27:58.093Z,38.80
2022-12-04T12:30:26.585Z,40.45
2022-12-04T12:33:08.361Z,41.10
2022-12-04T12:36:14.689Z,40.78
2022-12-04T12:38:48.960Z,41.22
2022-12-04T12:41:19.555Z,41.03
2022-12-04T12:44:56.425Z,41.35
2022-12-04T12:47:29.076Z,36.10
2022-12-04T12:50:12.047Z,38.83
2022-12-04T12:53:03.572Z,37.38
2022-12-04T12:55:50.726Z,26.85
2022-12-04T12:58:21.714Z,34.20
2022-12-04T13:00:58.777Z,37.60
2022-12-04T13:04:03.439Z,37.92
2022-12-04T13:06:38.607Z,36.72
2022-12-04T13:09:12.476Z,35.33
2022-12-04T13:11:40.287Z,38.15
2022-12-04T13:14:07.547Z,35.63
2022-12-04T13:16:51.422Z,36.50
2022-12-04T13:19:22.009Z,37.92
2022-12-04T13:22:04.253Z,37.13
2022-12-04T13:24:57.165Z,37.10
2022-12-04T13:27:51.187Z,37.35
2022-12-04T13:30:24.699Z,37.67
2022-12-04T13:33:04.035Z,39.90
2022-12-04T13:35:43.230Z,38.30
2022-12-04T13:38:21.549Z,40.15
2022-12-04T13:40:56.296Z,39.80
2022-12-04T13:43:29.298Z,39.08
2022-12-04T13:45:59.611Z,40.60
2022-12-04T13:48:44.936Z,38.55
2022-12-04T13:51:15.227Z,39.70
2022-12-04T13:53:43.460Z,39.47
2022-12-04T13:56:25.912Z,39.85
2022-12-04T13:59:19.080Z,38.38
2022-12-04T14:01:48.188Z,37.53
2022-12-04T14:04:44.923Z,39.63
2022-12-04T14:07:30.707Z,38.45
2022-12-04T14:09:59.944Z,40.05
2022-12-04T14:12:30.138Z,41.72
2022-12-04T14:15:11.609Z,41.00
2022-12-04T14:17:39.933Z,41.00
2022-12-04T14:20:27.973Z,40.25
2022-12-04T14:22:55.553Z,43.63
2022-12-04T14:25:33.999Z,42.55
2022-12-04T14:28:24.138Z,42.67
2022-12-04T14:31:16.799Z,40.72
2022-12-04T14:33:53.852Z,40.25
2022-12-04T14:36:45.678Z,43.60
2022-12-04T14:39:45.559Z,41.13
2022-12-04T14:42:23.180Z,41.55
2022-12-04T14:45:02.802Z,41.28
2022-12-04T14:48:01.080Z,38.45
2022-12-04T14:51:00.718Z,38.95
2022-12-04T14:54:05.386Z,44.13
2022-12-04T14:56:38.666Z,44.08
2022-12-04T14:59:18.052Z,41.35
2022-12-04T15:01:48.134Z,40.97
2022-12-04T15:04:24.606Z,43.92
2022-12-04T15:06:58.360Z,44.72
2022-12-04T15:09:46.809Z,44.78
2022-12-04T15:12:42.210Z,45.30
2022-12-04T15:15:22.054Z,45.42
2022-12-04T15:18:15.206Z,45.85
2022-12-04T15:20:58.617Z,47.47
2022-12-04T15:23:40.716Z,49.35
2022-12-04T15:26:20.674Z,47.15
2022-12-04T15:28:59.080Z,50.08
2022-12-04T15:31:30.384Z,49.58
2022-12-04T15:34:01.402Z,49.95
2022-12-04T15:36:45.163Z,46.70
2022-12-04T15:39:18.501Z,48.38
2022-12-04T15:41:45.769Z,42.65
2022-12-04T15:44:32.387Z,50.60
2022-12-04T15:47:03.016Z,49.42
2022-12-04T15:49:34.564Z,49.85
2022-12-04T15:52:24.081Z,50.78
2022-12-04T15:54:51.811Z,51.15
2022-12-04T15:57:37.847Z,49.83
2022-12-04T16:00:09.060Z,51.05
2022-12-04T16:02:40.457Z,48.22
2022-12-04T16:05:22.734Z,50.38
2022-12-04T16:07:51.110Z,48.50
2022-12-04T16:10:21.505Z,52.97
2022-12-04T16:12:57.023Z,51.92
2022-12-04T16:15:25.899Z,52.00
2022-12-04T16:17:53.843Z,51.75
2022-12-04T16:20:21.196Z,52.28
2022-12-04T16:22:51.969Z,50.13
2022-12-04T16:25:19.085Z,53.60
2022-12-04T16:27:46.097Z,54.28
2022-12-04T16:30:14.402Z,48.42
2022-12-04T16:32:41.518Z,52.55
2022-12-04T16:35:14.424Z,50.58
2022-12-04T16:37:41.988Z,53.50
2022-12-04T16:40:11.467Z,57.55
2022-12-04T16:42:39.518Z,54.72
2022-12-04T16:45:29.268Z,52.75
2022-12-04T16:47:58.347Z,53.33
2022-12-04T16:50:26.804Z,54.38
2022-12-04T16:52:54.302Z,53.15
2022-12-04T16:55:40.315Z,49.15
2022-12-04T16:58:08.438Z,53.42
2022-12-04T17:00:36.840Z,47.95
2022-12-04T17:03:04.820Z,51.97
2022-12-04T17:05:35.762Z,51.45
2022-12-04T17:08:03.066Z,50.78
2022-12-04T17:10:30.316Z,50.20
2022-12-04T17:12:57.522Z,47.00
2022-12-04T17:15:25.046Z,47.40
2022-12-04T17:17:52.458Z,47.97
2022-12-04T17:20:21.207Z,51.15
2022-12-04T17:22:49.656Z,47.63
2022-12-04T17:25:17.633Z,49.15
2022-12-04T17:27:45.101Z,50.47
2022-12-04T17:30:12.973Z,51.97
2022-12-04T17:32:40.253Z,50.72
2022-12-04T17:35:08.364Z,51.75
2022-12-04T17:37:36.445Z,53.65
2022-12-04T17:40:04.581Z,50.22
2022-12-04T17:42:32.935Z,52.45
2022-12-04T17:45:00.161Z,55.50
2022-12-04T17:47:27.831Z,50.75
2022-12-04T17:49:55.050Z,52.45
2022-12-04T17:52:23.692Z,50.72
2022-12-04T17:54:52.151Z,51.90
2022-12-04T17:57:19.945Z,58.67
2022-12-04T17:59:47.195Z,66.45
2022-12-04T18:02:14.656Z,60.08
2022-12-04T18:04:42.298Z,54.22
2022-12-04T18:07:10.006Z,49.53
2022-12-04T18:09:37.630Z,55.25
2022-12-04T18:12:04.970Z,66.13
2022-12-04T18:14:33.539Z,62.38
2022-12-04T18:17:01.581Z,54.28
2022-12-04T18:19:30.007Z,75.80
2022-12-04T18:21:58.163Z,54.63
2022-12-04T18:24:26.675Z,69.03
2022-12-04T18:26:54.237Z,77.55
2022-12-04T18:29:24.038Z,69.18
2022-12-04T18:31:53.133Z,70.32
2022-12-04T18:34:20.848Z,71.55
2022-12-04T18:36:48.073Z,75.88
2022-12-04T18:39:21.791Z,57.60
2022-12-04T18:41:50.462Z,61.28
2022-12-04T18:44:17.961Z,66.45
2022-12-04T18:46:45.463Z,56.80
2022-12-04T18:49:12.798Z,55.10
2022-12-04T18:51:45.736Z,61.22
2022-12-04T18:54:25.311Z,54.33
2022-12-04T18:56:53.670Z,55.15
2022-12-04T18:59:23.355Z,54.00
2022-12-04T19:01:52.008Z,59.72
2022-12-04T19:04:22.300Z,57.60
2022-12-04T19:06:52.349Z,69.25
2022-12-04T19:09:47.226Z,61.92
2022-12-04T19:12:12.223Z,58.95
2022-12-04T19:14:39.966Z,67.93
2022-12-04T19:17:07.476Z,60.75
2022-12-04T19:19:34.701Z,64.82
2022-12-04T19:22:02.433Z,55.70
2022-12-04T19:24:29.694Z,56.53
2022-12-04T19:26:56.950Z,64.15
2022-12-04T19:29:24.014Z,66.47
2022-12-04T19:31:56.012Z,59.67
2022-12-04T19:34:26.731Z,62.33
2022-12-04T19:36:54.999Z,52.08
2022-12-04T19:39:22.160Z,56.80
2022-12-04T19:41:49.398Z,69.65
2022-12-04T19:44:47.308Z,50.47
2022-12-04T19:47:04.160Z,56.45
2022-12-04T19:49:31.696Z,51.38
2022-12-04T19:51:58.919Z,59.28
2022-12-04T19:54:26.207Z,48.85
2022-12-04T19:56:53.267Z,50.20
2022-12-04T19:59:20.681Z,56.03
2022-12-04T20:01:48.457Z,53.72
2022-12-04T20:04:15.819Z,53.83
2022-12-04T20:06:45.302Z,57.20
2022-12-04T20:09:16.339Z,60.35
2022-12-04T20:11:43.513Z,52.70
2022-12-04T20:14:11.121Z,46.75
2022-12-04T20:16:41.329Z,45.50
2022-12-04T20:19:09.741Z,47.55
2022-12-04T20:21:37.249Z,48.28
2022-12-04T20:24:07.002Z,48.85
2022-12-04T20:26:37.631Z,49.45
2022-12-04T20:29:10.080Z,47.00
2022-12-04T20:31:40.587Z,45.47
2022-12-04T20:34:12.525Z,43.10
2022-12-04T20:36:46.294Z,42.05
2022-12-04T20:39:16.735Z,42.35
2022-12-04T20:41:44.990Z,45.25
2022-12-04T20:44:18.400Z,50.15
2022-12-04T20:46:47.541Z,49.53
2022-12-04T20:49:21.562Z,52.38
2022-12-04T20:51:52.432Z,45.13
2022-12-04T20:54:22.502Z,52.65
2022-12-04T20:56:53.241Z,59.25
2022-12-04T20:59:22.682Z,52.17
2022-12-04T21:01:52.007Z,54.13
2022-12-04T21:04:21.022Z,43.80
2022-12-04T21:06:48.918Z,49.97
2022-12-04T21:09:21.003Z,40.65
2022-12-04T21:11:52.015Z,42.30
2022-12-04T21:14:41.723Z,39.50
2022-12-04T21:17:13.168Z,35.47
2022-12-04T21:19:40.525Z,38.63
2022-12-04T21:22:08.334Z,40.38
2022-12-04T21:24:38.991Z,41.15
2022-12-04T21:27:09.706Z,43.30
2022-12-04T21:29:38.720Z,39.85
2022-12-04T21:32:07.653Z,40.70
2022-12-04T21:34:35.384Z,40.30
2022-12-04T21:37:02.925Z,43.42
2022-12-04T21:39:31.176Z,41.30
2022-12-04T21:42:17.331Z,48.80
2022-12-04T21:44:44.530Z,44.25
2022-12-04T21:47:11.678Z,44.30
2022-12-04T21:49:39.077Z,38.60
2022-12-04T21:52:06.256Z,41.70
2022-12-04T21:54:33.421Z,44.58
2022-12-04T21:57:00.642Z,39.58
2022-12-04T21:59:27.925Z,40.67
2022-12-04T22:01:55.076Z,36.55
2022-12-04T22:04:22.440Z,42.28
2022-12-04T22:06:50.161Z,42.90
2022-12-04T22:09:17.692Z,41.03
2022-12-04T22:11:45.406Z,40.75
2022-12-04T22:14:12.887Z,37.90
2022-12-04T22:16:43.427Z,40.35
2022-12-04T22:19:14.069Z,37.55
2022-12-04T22:21:41.302Z,38.03
2022-12-04T22:24:08.962Z,34.08
2022-12-04T22:26:36.585Z,30.30
2022-12-04T22:29:20.819Z,35.08
2022-12-04T22:31:51.210Z,38.63
2022-12-04T22:34:18.277Z,39.35
2022-12-04T22:36:45.460Z,41.05
2022-12-04T22:39:12.596Z,37.95
2022-12-04T22:41:39.757Z,37.22
2022-12-04T22:44:06.919Z,36.58
2022-12-04T22:46:34.249Z,40.28
2022-12-04T22:49:01.546Z,37.80
2022-12-04T22:51:28.839Z,34.90
2022-12-04T22:53:57.725Z,37.63
2022-12-04T22:56:30.020Z,37.25
2022-12-04T22:58:58.164Z,35.92
2022-12-04T23:01:29.711Z,39.42
2022-12-04T23:03:57.637Z,37.63
2022-12-04T23:06:26.687Z,38.67
2022-12-04T23:08:59.346Z,39.35
2022-12-04T23:11:27.146Z,40.92
2022-12-04T23:13:56.706Z,35.47
2022-12-04T23:16:24.959Z,34.60
2022-12-04T23:18:52.390Z,35.83
2022-12-04T23:21:21.186Z,32.50
2022-12-04T23:23:49.424Z,37.58
2022-12-04T23:26:19.685Z,35.65
2022-12-04T23:28:47.369Z,40.78
2022-12-04T23:31:15.400Z,41.03
2022-12-04T23:33:43.058Z,44.10
2022-12-04T23:36:11.880Z,37.05
2022-12-04T23:38:40.479Z,38.35
2022-12-04T23:41:13.719Z,36.75
2022-12-04T23:43:41.751Z,42.20
2022-12-04T23:46:11.492Z,34.40
2022-12-04T23:48:44.334Z,38.60
2022-12-04T23:51:13.221Z,37.65
2022-12-04T23:53:40.918Z,38.05
2022-12-04T23:56:16.681Z,38.33
2022-12-04T23:58:45.439Z,36.72
